sensor_id;sensor_type;location;lat;lon;timestamp;P1;durP1;ratioP1;P2;durP2;ratioP2
16766;SDS011;8501;49.926;8.404;2022-10-16T00:01:15;5.43;;;4.45;;
16766;SDS011;8501;49.926;8.404;2022-10-16T00:03:43;8.80;;;5.20;;
16766;SDS011;8501;49.926;8.404;2022-10-16T00:06:09;9.68;;;5.13;;
16766;SDS011;8501;49.926;8.404;2022-10-16T00:08:36;7.63;;;5.03;;
16766;SDS011;8501;49.926;8.404;2022-10-16T00:13:39;7.50;;;5.03;;
16766;SDS011;8501;49.926;8.404;2022-10-16T00:16:06;6.07;;;4.93;;
16766;SDS011;8501;49.926;8.404;2022-10-16T00:18:32;6.57;;;4.75;;
16766;SDS011;8501;49.926;8.404;2022-10-16T00:21:05;7.28;;;4.28;;
16766;SDS011;8501;49.926;8.404;2022-10-16T00:23:33;7.05;;;4.50;;
16766;SDS011;8501;49.926;8.404;2022-10-16T00:26:02;6.22;;;4.10;;
16766;SDS011;8501;49.926;8.404;2022-10-16T00:28:29;6.78;;;4.25;;
16766;SDS011;8501;49.926;8.404;2022-10-16T00:30:55;6.53;;;4.90;;
16766;SDS011;8501;49.926;8.404;2022-10-16T00:33:21;6.20;;;4.50;;
16766;SDS011;8501;49.926;8.404;2022-10-16T00:35:47;10.32;;;4.43;;
16766;SDS011;8501;49.926;8.404;2022-10-16T00:38:13;5.78;;;4.22;;
16766;SDS011;8501;49.926;8.404;2022-10-16T00:40:39;6.32;;;4.32;;
16766;SDS011;8501;49.926;8.404;2022-10-16T00:43:32;7.15;;;4.22;;
16766;SDS011;8501;49.926;8.404;2022-10-16T00:48:44;5.68;;;4.32;;
16766;SDS011;8501;49.926;8.404;2022-10-16T00:51:35;7.50;;;4.05;;
16766;SDS011;8501;49.926;8.404;2022-10-16T00:54:08;8.45;;;4.03;;
16766;SDS011;8501;49.926;8.404;2022-10-16T00:56:38;4.15;;;3.45;;
16766;SDS011;8501;49.926;8.404;2022-10-16T00:59:05;4.15;;;3.60;;
16766;SDS011;8501;49.926;8.404;2022-10-16T01:01:35;5.68;;;3.42;;
16766;SDS011;8501;49.926;8.404;2022-10-16T01:04:00;6.13;;;3.45;;
16766;SDS011;8501;49.926;8.404;2022-10-16T01:14:26;5.13;;;3.17;;
16766;SDS011;8501;49.926;8.404;2022-10-16T01:17:11;4.15;;;2.80;;
16766;SDS011;8501;49.926;8.404;2022-10-16T01:19:48;4.53;;;2.80;;
16766;SDS011;8501;49.926;8.404;2022-10-16T01:22:18;6.18;;;2.95;;
16766;SDS011;8501;49.926;8.404;2022-10-16T01:24:48;4.47;;;2.67;;
16766;SDS011;8501;49.926;8.404;2022-10-16T01:27:16;4.05;;;2.78;;
16766;SDS011;8501;49.926;8.404;2022-10-16T01:29:56;2.95;;;2.58;;
16766;SDS011;8501;49.926;8.404;2022-10-16T01:40:32;5.43;;;2.75;;
16766;SDS011;8501;49.926;8.404;2022-10-16T01:43:05;2.85;;;2.58;;
16766;SDS011;8501;49.926;8.404;2022-10-16T01:45:32;3.35;;;2.30;;
16766;SDS011;8501;49.926;8.404;2022-10-16T01:48:00;2.83;;;2.35;;
16766;SDS011;8501;49.926;8.404;2022-10-16T01:50:29;8.20;;;2.60;;
16766;SDS011;8501;49.926;8.404;2022-10-16T01:52:58;2.88;;;2.20;;
16766;SDS011;8501;49.926;8.404;2022-10-16T01:55:28;2.65;;;2.35;;
16766;SDS011;8501;49.926;8.404;2022-10-16T01:57:57;2.90;;;2.42;;
16766;SDS011;8501;49.926;8.404;2022-10-16T02:00:24;3.60;;;2.22;;
16766;SDS011;8501;49.926;8.404;2022-10-16T02:02:52;3.22;;;2.28;;
16766;SDS011;8501;49.926;8.404;2022-10-16T02:07:52;2.85;;;2.40;;
16766;SDS011;8501;49.926;8.404;2022-10-16T02:10:18;3.55;;;2.30;;
16766;SDS011;8501;49.926;8.404;2022-10-16T02:12:50;2.92;;;2.17;;
16766;SDS011;8501;49.926;8.404;2022-10-16T02:15:23;2.30;;;1.90;;
16766;SDS011;8501;49.926;8.404;2022-10-16T02:17:49;4.85;;;2.40;;
16766;SDS011;8501;49.926;8.404;2022-10-16T02:20:14;3.75;;;1.90;;
16766;SDS011;8501;49.926;8.404;2022-10-16T02:22:42;1.73;;;1.60;;
16766;SDS011;8501;49.926;8.404;2022-10-16T02:25:19;2.95;;;1.90;;
16766;SDS011;8501;49.926;8.404;2022-10-16T02:27:57;2.72;;;1.90;;
16766;SDS011;8501;49.926;8.404;2022-10-16T02:30:48;3.75;;;2.10;;
16766;SDS011;8501;49.926;8.404;2022-10-16T02:33:21;2.05;;;1.50;;
16766;SDS011;8501;49.926;8.404;2022-10-16T02:35:49;6.40;;;2.08;;
16766;SDS011;8501;49.926;8.404;2022-10-16T02:38:16;2.80;;;1.60;;
16766;SDS011;8501;49.926;8.404;2022-10-16T02:40:44;1.83;;;1.48;;
16766;SDS011;8501;49.926;8.404;2022-10-16T02:43:10;2.05;;;1.55;;
16766;SDS011;8501;49.926;8.404;2022-10-16T02:45:36;2.13;;;1.55;;
16766;SDS011;8501;49.926;8.404;2022-10-16T02:48:02;1.60;;;1.50;;
16766;SDS011;8501;49.926;8.404;2022-10-16T02:50:28;2.28;;;1.52;;
16766;SDS011;8501;49.926;8.404;2022-10-16T02:52:53;2.17;;;1.50;;
16766;SDS011;8501;49.926;8.404;2022-10-16T02:55:19;3.13;;;1.60;;
16766;SDS011;8501;49.926;8.404;2022-10-16T02:57:44;2.17;;;1.50;;
16766;SDS011;8501;49.926;8.404;2022-10-16T03:00:12;3.90;;;1.50;;
16766;SDS011;8501;49.926;8.404;2022-10-16T03:02:38;2.00;;;1.50;;
16766;SDS011;8501;49.926;8.404;2022-10-16T03:05:04;3.40;;;1.50;;
16766;SDS011;8501;49.926;8.404;2022-10-16T03:07:31;1.98;;;1.73;;
16766;SDS011;8501;49.926;8.404;2022-10-16T03:09:56;2.33;;;1.50;;
16766;SDS011;8501;49.926;8.404;2022-10-16T03:12:25;2.40;;;1.35;;
16766;SDS011;8501;49.926;8.404;2022-10-16T03:14:51;1.40;;;1.30;;
16766;SDS011;8501;49.926;8.404;2022-10-16T03:17:16;2.53;;;1.58;;
16766;SDS011;8501;49.926;8.404;2022-10-16T03:19:42;3.20;;;1.40;;
16766;SDS011;8501;49.926;8.404;2022-10-16T03:22:08;1.52;;;1.10;;
16766;SDS011;8501;49.926;8.404;2022-10-16T03:24:33;2.53;;;1.20;;
16766;SDS011;8501;49.926;8.404;2022-10-16T03:26:59;2.65;;;1.50;;
16766;SDS011;8501;49.926;8.404;2022-10-16T03:29:25;1.92;;;1.50;;
16766;SDS011;8501;49.926;8.404;2022-10-16T03:31:52;2.83;;;1.30;;
16766;SDS011;8501;49.926;8.404;2022-10-16T03:34:18;1.30;;;1.20;;
16766;SDS011;8501;49.926;8.404;2022-10-16T03:36:43;1.40;;;1.30;;
16766;SDS011;8501;49.926;8.404;2022-10-16T03:39:09;1.85;;;1.25;;
16766;SDS011;8501;49.926;8.404;2022-10-16T03:41:34;1.38;;;1.20;;
16766;SDS011;8501;49.926;8.404;2022-10-16T03:44:00;3.75;;;1.25;;
16766;SDS011;8501;49.926;8.404;2022-10-16T03:46:25;3.35;;;1.20;;
16766;SDS011;8501;49.926;8.404;2022-10-16T03:48:51;2.30;;;1.15;;
16766;SDS011;8501;49.926;8.404;2022-10-16T03:51:17;1.48;;;1.20;;
16766;SDS011;8501;49.926;8.404;2022-10-16T03:53:42;1.85;;;1.30;;
16766;SDS011;8501;49.926;8.404;2022-10-16T03:56:08;1.95;;;1.20;;
16766;SDS011;8501;49.926;8.404;2022-10-16T03:58:33;1.45;;;1.35;;
16766;SDS011;8501;49.926;8.404;2022-10-16T04:00:59;1.75;;;1.25;;
16766;SDS011;8501;49.926;8.404;2022-10-16T04:03:24;2.65;;;1.35;;
16766;SDS011;8501;49.926;8.404;2022-10-16T04:05:50;1.65;;;1.20;;
16766;SDS011;8501;49.926;8.404;2022-10-16T04:08:16;4.35;;;1.30;;
16766;SDS011;8501;49.926;8.404;2022-10-16T04:10:44;1.10;;;1.00;;
16766;SDS011;8501;49.926;8.404;2022-10-16T04:13:10;2.55;;;1.10;;
16766;SDS011;8501;49.926;8.404;2022-10-16T04:15:36;1.40;;;1.30;;
16766;SDS011;8501;49.926;8.404;2022-10-16T04:18:02;2.50;;;1.50;;
16766;SDS011;8501;49.926;8.404;2022-10-16T04:20:28;2.72;;;1.30;;
16766;SDS011;8501;49.926;8.404;2022-10-16T04:22:55;2.92;;;1.23;;
16766;SDS011;8501;49.926;8.404;2022-10-16T04:25:20;2.42;;;1.40;;
16766;SDS011;8501;49.926;8.404;2022-10-16T04:27:46;4.50;;;1.48;;
16766;SDS011;8501;49.926;8.404;2022-10-16T04:30:12;1.95;;;1.27;;
16766;SDS011;8501;49.926;8.404;2022-10-16T04:32:38;1.50;;;1.20;;
16766;SDS011;8501;49.926;8.404;2022-10-16T04:35:03;2.42;;;1.38;;
16766;SDS011;8501;49.926;8.404;2022-10-16T04:37:29;1.80;;;1.27;;
16766;SDS011;8501;49.926;8.404;2022-10-16T04:39:55;3.53;;;1.20;;
16766;SDS011;8501;49.926;8.404;2022-10-16T04:42:20;1.42;;;1.33;;
16766;SDS011;8501;49.926;8.404;2022-10-16T04:44:46;2.55;;;1.30;;
16766;SDS011;8501;49.926;8.404;2022-10-16T04:47:12;4.85;;;1.40;;
16766;SDS011;8501;49.926;8.404;2022-10-16T04:49:38;1.80;;;1.40;;
16766;SDS011;8501;49.926;8.404;2022-10-16T04:52:03;1.85;;;1.50;;
16766;SDS011;8501;49.926;8.404;2022-10-16T04:54:29;1.90;;;1.48;;
16766;SDS011;8501;49.926;8.404;2022-10-16T04:56:55;3.08;;;1.40;;
16766;SDS011;8501;49.926;8.404;2022-10-16T04:59:20;5.05;;;1.70;;
16766;SDS011;8501;49.926;8.404;2022-10-16T05:01:47;2.45;;;1.40;;
16766;SDS011;8501;49.926;8.404;2022-10-16T05:04:12;1.65;;;1.50;;
16766;SDS011;8501;49.926;8.404;2022-10-16T05:06:39;1.40;;;1.20;;
16766;SDS011;8501;49.926;8.404;2022-10-16T05:09:05;2.03;;;1.40;;
16766;SDS011;8501;49.926;8.404;2022-10-16T05:11:31;1.83;;;1.10;;
16766;SDS011;8501;49.926;8.404;2022-10-16T05:13:56;1.98;;;1.20;;
16766;SDS011;8501;49.926;8.404;2022-10-16T05:16:22;1.58;;;1.40;;
16766;SDS011;8501;49.926;8.404;2022-10-16T05:18:48;2.40;;;1.30;;
16766;SDS011;8501;49.926;8.404;2022-10-16T05:21:13;2.40;;;1.30;;
16766;SDS011;8501;49.926;8.404;2022-10-16T05:23:39;2.42;;;1.40;;
16766;SDS011;8501;49.926;8.404;2022-10-16T05:26:04;1.70;;;1.40;;
16766;SDS011;8501;49.926;8.404;2022-10-16T05:28:30;2.08;;;1.40;;
16766;SDS011;8501;49.926;8.404;2022-10-16T05:30:56;1.40;;;1.25;;
16766;SDS011;8501;49.926;8.404;2022-10-16T05:33:24;3.25;;;1.50;;
16766;SDS011;8501;49.926;8.404;2022-10-16T05:35:50;2.25;;;1.25;;
16766;SDS011;8501;49.926;8.404;2022-10-16T05:38:17;2.50;;;1.38;;
16766;SDS011;8501;49.926;8.404;2022-10-16T05:40:43;4.93;;;1.60;;
16766;SDS011;8501;49.926;8.404;2022-10-16T05:43:15;2.13;;;1.10;;
16766;SDS011;8501;49.926;8.404;2022-10-16T05:45:40;1.50;;;1.30;;
16766;SDS011;8501;49.926;8.404;2022-10-16T05:48:06;1.52;;;1.38;;
16766;SDS011;8501;49.926;8.404;2022-10-16T05:50:31;4.65;;;1.42;;
16766;SDS011;8501;49.926;8.404;2022-10-16T05:52:57;1.70;;;1.60;;
16766;SDS011;8501;49.926;8.404;2022-10-16T05:55:22;2.58;;;1.80;;
16766;SDS011;8501;49.926;8.404;2022-10-16T05:57:48;2.50;;;1.70;;
16766;SDS011;8501;49.926;8.404;2022-10-16T06:00:13;4.20;;;1.95;;
16766;SDS011;8501;49.926;8.404;2022-10-16T06:02:39;3.33;;;1.70;;
16766;SDS011;8501;49.926;8.404;2022-10-16T06:05:04;3.75;;;2.08;;
16766;SDS011;8501;49.926;8.404;2022-10-16T06:07:33;4.97;;;1.98;;
16766;SDS011;8501;49.926;8.404;2022-10-16T06:10:00;6.28;;;2.42;;
16766;SDS011;8501;49.926;8.404;2022-10-16T06:12:26;2.83;;;1.95;;
16766;SDS011;8501;49.926;8.404;2022-10-16T06:14:51;3.65;;;1.90;;
16766;SDS011;8501;49.926;8.404;2022-10-16T06:17:17;4.03;;;2.00;;
16766;SDS011;8501;49.926;8.404;2022-10-16T06:19:43;2.65;;;2.35;;
16766;SDS011;8501;49.926;8.404;2022-10-16T06:22:08;5.45;;;2.38;;
16766;SDS011;8501;49.926;8.404;2022-10-16T06:24:34;2.85;;;2.40;;
16766;SDS011;8501;49.926;8.404;2022-10-16T06:27:00;2.92;;;2.40;;
16766;SDS011;8501;49.926;8.404;2022-10-16T06:29:25;3.72;;;2.78;;
16766;SDS011;8501;49.926;8.404;2022-10-16T06:31:51;4.03;;;2.90;;
16766;SDS011;8501;49.926;8.404;2022-10-16T06:34:17;3.25;;;2.55;;
16766;SDS011;8501;49.926;8.404;2022-10-16T06:36:43;3.17;;;2.50;;
16766;SDS011;8501;49.926;8.404;2022-10-16T06:39:09;5.18;;;3.30;;
16766;SDS011;8501;49.926;8.404;2022-10-16T06:41:34;4.55;;;3.00;;
16766;SDS011;8501;49.926;8.404;2022-10-16T06:44:00;6.97;;;3.13;;
16766;SDS011;8501;49.926;8.404;2022-10-16T06:46:26;5.80;;;3.17;;
16766;SDS011;8501;49.926;8.404;2022-10-16T06:48:52;3.40;;;2.90;;
16766;SDS011;8501;49.926;8.404;2022-10-16T06:51:19;4.38;;;3.17;;
16766;SDS011;8501;49.926;8.404;2022-10-16T06:53:50;4.43;;;3.10;;
16766;SDS011;8501;49.926;8.404;2022-10-16T06:56:25;6.03;;;3.35;;
16766;SDS011;8501;49.926;8.404;2022-10-16T06:58:52;4.20;;;3.15;;
16766;SDS011;8501;49.926;8.404;2022-10-16T07:01:19;4.90;;;3.28;;
16766;SDS011;8501;49.926;8.404;2022-10-16T07:03:46;5.68;;;3.10;;
16766;SDS011;8501;49.926;8.404;2022-10-16T07:06:13;3.75;;;3.22;;
16766;SDS011;8501;49.926;8.404;2022-10-16T07:08:41;4.47;;;3.22;;
16766;SDS011;8501;49.926;8.404;2022-10-16T07:11:09;4.85;;;3.53;;
16766;SDS011;8501;49.926;8.404;2022-10-16T07:13:37;7.30;;;3.70;;
16766;SDS011;8501;49.926;8.404;2022-10-16T07:16:04;6.63;;;4.03;;
16766;SDS011;8501;49.926;8.404;2022-10-16T07:18:40;6.68;;;3.95;;
16766;SDS011;8501;49.926;8.404;2022-10-16T07:21:09;5.80;;;4.53;;
16766;SDS011;8501;49.926;8.404;2022-10-16T07:23:36;9.95;;;4.38;;
16766;SDS011;8501;49.926;8.404;2022-10-16T07:26:02;6.65;;;3.92;;
16766;SDS011;8501;49.926;8.404;2022-10-16T07:28:28;5.07;;;4.20;;
16766;SDS011;8501;49.926;8.404;2022-10-16T07:30:54;6.68;;;4.53;;
16766;SDS011;8501;49.926;8.404;2022-10-16T07:33:19;7.03;;;4.60;;
16766;SDS011;8501;49.926;8.404;2022-10-16T07:35:49;6.57;;;4.22;;
16766;SDS011;8501;49.926;8.404;2022-10-16T07:38:19;6.28;;;4.68;;
16766;SDS011;8501;49.926;8.404;2022-10-16T07:40:45;6.78;;;4.88;;
16766;SDS011;8501;49.926;8.404;2022-10-16T07:43:11;11.07;;;5.65;;
16766;SDS011;8501;49.926;8.404;2022-10-16T07:45:37;7.97;;;6.13;;
16766;SDS011;8501;49.926;8.404;2022-10-16T07:48:11;13.20;;;7.18;;
16766;SDS011;8501;49.926;8.404;2022-10-16T07:50:36;7.72;;;5.68;;
16766;SDS011;8501;49.926;8.404;2022-10-16T07:53:02;6.28;;;5.38;;
16766;SDS011;8501;49.926;8.404;2022-10-16T07:55:28;8.02;;;5.35;;
16766;SDS011;8501;49.926;8.404;2022-10-16T07:57:54;7.05;;;4.93;;
16766;SDS011;8501;49.926;8.404;2022-10-16T08:00:19;6.72;;;5.35;;
16766;SDS011;8501;49.926;8.404;2022-10-16T08:02:45;7.07;;;5.50;;
16766;SDS011;8501;49.926;8.404;2022-10-16T08:05:11;9.63;;;5.25;;
16766;SDS011;8501;49.926;8.404;2022-10-16T08:07:36;9.85;;;5.30;;
16766;SDS011;8501;49.926;8.404;2022-10-16T08:10:02;5.38;;;4.55;;
16766;SDS011;8501;49.926;8.404;2022-10-16T08:12:28;7.25;;;5.00;;
16766;SDS011;8501;49.926;8.404;2022-10-16T08:14:53;7.45;;;5.30;;
16766;SDS011;8501;49.926;8.404;2022-10-16T08:17:19;8.85;;;5.63;;
16766;SDS011;8501;49.926;8.404;2022-10-16T08:19:47;8.20;;;5.63;;
16766;SDS011;8501;49.926;8.404;2022-10-16T08:22:13;6.70;;;5.15;;
16766;SDS011;8501;49.926;8.404;2022-10-16T08:24:39;7.78;;;5.57;;
16766;SDS011;8501;49.926;8.404;2022-10-16T08:27:05;8.43;;;5.45;;
16766;SDS011;8501;49.926;8.404;2022-10-16T08:29:31;8.15;;;5.82;;
16766;SDS011;8501;49.926;8.404;2022-10-16T08:31:57;7.93;;;5.75;;
16766;SDS011;8501;49.926;8.404;2022-10-16T08:34:23;10.57;;;6.38;;
16766;SDS011;8501;49.926;8.404;2022-10-16T08:36:48;9.35;;;6.13;;
16766;SDS011;8501;49.926;8.404;2022-10-16T08:39:14;7.20;;;5.65;;
16766;SDS011;8501;49.926;8.404;2022-10-16T08:44:33;6.97;;;6.28;;
16766;SDS011;8501;49.926;8.404;2022-10-16T08:50:36;9.70;;;6.45;;
16766;SDS011;8501;49.926;8.404;2022-10-16T08:53:04;7.75;;;5.97;;
16766;SDS011;8501;49.926;8.404;2022-10-16T08:55:37;9.02;;;6.38;;
16766;SDS011;8501;49.926;8.404;2022-10-16T08:58:14;9.30;;;6.88;;
16766;SDS011;8501;49.926;8.404;2022-10-16T09:00:42;9.52;;;6.75;;
16766;SDS011;8501;49.926;8.404;2022-10-16T09:03:22;9.02;;;6.60;;
16766;SDS011;8501;49.926;8.404;2022-10-16T09:11:36;8.98;;;6.53;;
16766;SDS011;8501;49.926;8.404;2022-10-16T09:16:54;10.40;;;7.15;;
16766;SDS011;8501;49.926;8.404;2022-10-16T09:19:38;35.05;;;21.83;;
16766;SDS011;8501;49.926;8.404;2022-10-16T09:22:12;29.83;;;18.50;;
16766;SDS011;8501;49.926;8.404;2022-10-16T09:24:40;24.17;;;18.05;;
16766;SDS011;8501;49.926;8.404;2022-10-16T09:27:12;11.43;;;8.77;;
16766;SDS011;8501;49.926;8.404;2022-10-16T09:29:39;14.32;;;8.35;;
16766;SDS011;8501;49.926;8.404;2022-10-16T09:32:12;10.75;;;8.32;;
16766;SDS011;8501;49.926;8.404;2022-10-16T09:34:42;9.40;;;8.00;;
16766;SDS011;8501;49.926;8.404;2022-10-16T09:37:12;13.57;;;8.40;;
16766;SDS011;8501;49.926;8.404;2022-10-16T09:39:46;11.05;;;7.45;;
16766;SDS011;8501;49.926;8.404;2022-10-16T09:42:22;9.95;;;7.20;;
16766;SDS011;8501;49.926;8.404;2022-10-16T09:44:55;11.82;;;7.70;;
16766;SDS011;8501;49.926;8.404;2022-10-16T09:47:23;10.38;;;7.72;;
16766;SDS011;8501;49.926;8.404;2022-10-16T09:49:54;11.75;;;8.45;;
16766;SDS011;8501;49.926;8.404;2022-10-16T09:52:23;19.08;;;8.18;;
16766;SDS011;8501;49.926;8.404;2022-10-16T09:54:52;11.13;;;7.65;;
16766;SDS011;8501;49.926;8.404;2022-10-16T09:57:20;13.98;;;9.48;;
16766;SDS011;8501;49.926;8.404;2022-10-16T09:59:47;11.93;;;8.88;;
16766;SDS011;8501;49.926;8.404;2022-10-16T10:02:17;10.13;;;7.97;;
16766;SDS011;8501;49.926;8.404;2022-10-16T10:04:49;7.40;;;6.70;;
16766;SDS011;8501;49.926;8.404;2022-10-16T10:07:20;7.13;;;6.00;;
16766;SDS011;8501;49.926;8.404;2022-10-16T10:09:51;6.70;;;5.53;;
16766;SDS011;8501;49.926;8.404;2022-10-16T10:12:25;6.95;;;5.32;;
16766;SDS011;8501;49.926;8.404;2022-10-16T10:14:57;5.90;;;5.05;;
16766;SDS011;8501;49.926;8.404;2022-10-16T10:17:29;4.93;;;4.13;;
16766;SDS011;8501;49.926;8.404;2022-10-16T10:19:55;4.38;;;3.75;;
16766;SDS011;8501;49.926;8.404;2022-10-16T10:27:39;5.07;;;4.30;;
16766;SDS011;8501;49.926;8.404;2022-10-16T10:30:18;7.60;;;4.43;;
16766;SDS011;8501;49.926;8.404;2022-10-16T10:32:55;6.43;;;4.78;;
16766;SDS011;8501;49.926;8.404;2022-10-16T10:35:44;8.57;;;5.80;;
16766;SDS011;8501;49.926;8.404;2022-10-16T10:38:24;7.97;;;6.00;;
16766;SDS011;8501;49.926;8.404;2022-10-16T10:40:54;6.63;;;5.70;;
16766;SDS011;8501;49.926;8.404;2022-10-16T10:46:51;10.55;;;7.00;;
16766;SDS011;8501;49.926;8.404;2022-10-16T10:55:51;8.10;;;6.57;;
16766;SDS011;8501;49.926;8.404;2022-10-16T10:58:27;8.85;;;6.50;;
16766;SDS011;8501;49.926;8.404;2022-10-16T11:06:36;9.25;;;6.70;;
16766;SDS011;8501;49.926;8.404;2022-10-16T11:09:15;8.20;;;7.40;;
16766;SDS011;8501;49.926;8.404;2022-10-16T11:11:45;8.70;;;7.78;;
16766;SDS011;8501;49.926;8.404;2022-10-16T11:14:22;9.23;;;7.70;;
16766;SDS011;8501;49.926;8.404;2022-10-16T11:17:27;9.30;;;8.05;;
16766;SDS011;8501;49.926;8.404;2022-10-16T11:22:47;8.98;;;7.63;;
16766;SDS011;8501;49.926;8.404;2022-10-16T11:25:27;9.65;;;8.13;;
16766;SDS011;8501;49.926;8.404;2022-10-16T11:28:19;8.02;;;7.22;;
16766;SDS011;8501;49.926;8.404;2022-10-16T11:30:53;8.05;;;7.25;;
16766;SDS011;8501;49.926;8.404;2022-10-16T11:33:33;8.82;;;7.38;;
16766;SDS011;8501;49.926;8.404;2022-10-16T11:36:08;8.43;;;7.50;;
16766;SDS011;8501;49.926;8.404;2022-10-16T11:39:11;9.88;;;8.10;;
16766;SDS011;8501;49.926;8.404;2022-10-16T11:41:47;8.60;;;7.70;;
16766;SDS011;8501;49.926;8.404;2022-10-16T11:47:08;6.30;;;5.70;;
16766;SDS011;8501;49.926;8.404;2022-10-16T11:49:45;8.20;;;5.80;;
16766;SDS011;8501;49.926;8.404;2022-10-16T11:52:33;5.57;;;4.95;;
16766;SDS011;8501;49.926;8.404;2022-10-16T11:55:17;5.47;;;4.97;;
16766;SDS011;8501;49.926;8.404;2022-10-16T11:58:06;5.82;;;4.65;;
16766;SDS011;8501;49.926;8.404;2022-10-16T12:00:45;5.45;;;3.90;;
16766;SDS011;8501;49.926;8.404;2022-10-16T12:03:40;7.38;;;4.05;;
16766;SDS011;8501;49.926;8.404;2022-10-16T12:06:14;4.60;;;3.55;;
16766;SDS011;8501;49.926;8.404;2022-10-16T12:08:49;5.38;;;4.00;;
16766;SDS011;8501;49.926;8.404;2022-10-16T12:16:59;4.90;;;4.47;;
16766;SDS011;8501;49.926;8.404;2022-10-16T12:19:57;5.70;;;4.15;;
16766;SDS011;8501;49.926;8.404;2022-10-16T12:22:24;4.72;;;4.32;;
16766;SDS011;8501;49.926;8.404;2022-10-16T12:24:54;4.70;;;4.20;;
16766;SDS011;8501;49.926;8.404;2022-10-16T12:27:30;5.55;;;4.05;;
16766;SDS011;8501;49.926;8.404;2022-10-16T12:30:00;5.72;;;4.38;;
16766;SDS011;8501;49.926;8.404;2022-10-16T12:32:34;6.72;;;4.28;;
16766;SDS011;8501;49.926;8.404;2022-10-16T12:35:02;4.07;;;3.67;;
16766;SDS011;8501;49.926;8.404;2022-10-16T12:37:33;3.72;;;3.30;;
16766;SDS011;8501;49.926;8.404;2022-10-16T12:40:46;4.13;;;3.72;;
16766;SDS011;8501;49.926;8.404;2022-10-16T12:42:51;4.07;;;3.40;;
16766;SDS011;8501;49.926;8.404;2022-10-16T12:47:56;4.90;;;3.22;;
16766;SDS011;8501;49.926;8.404;2022-10-16T12:50:28;5.43;;;3.28;;
16766;SDS011;8501;49.926;8.404;2022-10-16T12:52:57;3.90;;;3.30;;
16766;SDS011;8501;49.926;8.404;2022-10-16T12:55:23;3.75;;;3.38;;
16766;SDS011;8501;49.926;8.404;2022-10-16T13:00:50;4.18;;;3.50;;
16766;SDS011;8501;49.926;8.404;2022-10-16T13:09:27;4.95;;;3.22;;
16766;SDS011;8501;49.926;8.404;2022-10-16T13:15:22;4.07;;;3.55;;
16766;SDS011;8501;49.926;8.404;2022-10-16T13:17:53;3.88;;;3.53;;
16766;SDS011;8501;49.926;8.404;2022-10-16T13:26:18;4.07;;;3.67;;
16766;SDS011;8501;49.926;8.404;2022-10-16T13:29:02;4.57;;;3.80;;
16766;SDS011;8501;49.926;8.404;2022-10-16T13:31:29;6.30;;;3.65;;
16766;SDS011;8501;49.926;8.404;2022-10-16T13:33:56;4.75;;;3.80;;
16766;SDS011;8501;49.926;8.404;2022-10-16T13:36:34;5.35;;;3.75;;
16766;SDS011;8501;49.926;8.404;2022-10-16T13:39:12;5.25;;;3.85;;
16766;SDS011;8501;49.926;8.404;2022-10-16T13:41:39;6.10;;;4.15;;
16766;SDS011;8501;49.926;8.404;2022-10-16T13:44:09;4.18;;;3.78;;
16766;SDS011;8501;49.926;8.404;2022-10-16T13:46:40;7.45;;;4.25;;
16766;SDS011;8501;49.926;8.404;2022-10-16T13:49:14;4.53;;;3.85;;
16766;SDS011;8501;49.926;8.404;2022-10-16T13:51:40;4.78;;;3.92;;
16766;SDS011;8501;49.926;8.404;2022-10-16T13:54:10;5.38;;;4.45;;
16766;SDS011;8501;49.926;8.404;2022-10-16T13:56:38;4.35;;;3.95;;
16766;SDS011;8501;49.926;8.404;2022-10-16T13:59:06;4.55;;;4.00;;
16766;SDS011;8501;49.926;8.404;2022-10-16T14:01:48;4.70;;;4.30;;
16766;SDS011;8501;49.926;8.404;2022-10-16T14:04:15;5.95;;;4.18;;
16766;SDS011;8501;49.926;8.404;2022-10-16T14:06:42;5.97;;;4.03;;
16766;SDS011;8501;49.926;8.404;2022-10-16T14:11:46;4.60;;;3.85;;
16766;SDS011;8501;49.926;8.404;2022-10-16T14:14:16;4.75;;;4.30;;
16766;SDS011;8501;49.926;8.404;2022-10-16T14:16:43;4.57;;;4.18;;
16766;SDS011;8501;49.926;8.404;2022-10-16T14:19:13;5.40;;;4.50;;
16766;SDS011;8501;49.926;8.404;2022-10-16T14:21:43;6.38;;;4.60;;
16766;SDS011;8501;49.926;8.404;2022-10-16T14:24:52;4.45;;;4.05;;
16766;SDS011;8501;49.926;8.404;2022-10-16T14:26:59;5.13;;;4.10;;
16766;SDS011;8501;49.926;8.404;2022-10-16T14:29:25;5.53;;;4.03;;
16766;SDS011;8501;49.926;8.404;2022-10-16T14:32:03;5.20;;;4.65;;
16766;SDS011;8501;49.926;8.404;2022-10-16T14:34:53;6.80;;;4.50;;
16766;SDS011;8501;49.926;8.404;2022-10-16T14:37:28;6.85;;;4.82;;
16766;SDS011;8501;49.926;8.404;2022-10-16T14:39:55;5.18;;;4.43;;
16766;SDS011;8501;49.926;8.404;2022-10-16T14:42:21;5.85;;;4.32;;
16766;SDS011;8501;49.926;8.404;2022-10-16T14:44:50;5.55;;;4.65;;
16766;SDS011;8501;49.926;8.404;2022-10-16T14:47:22;5.60;;;4.97;;
16766;SDS011;8501;49.926;8.404;2022-10-16T14:49:51;5.78;;;4.35;;
16766;SDS011;8501;49.926;8.404;2022-10-16T14:52:20;6.60;;;4.50;;
16766;SDS011;8501;49.926;8.404;2022-10-16T14:54:49;5.60;;;5.00;;
16766;SDS011;8501;49.926;8.404;2022-10-16T14:57:22;5.15;;;4.65;;
16766;SDS011;8501;49.926;8.404;2022-10-16T14:59:49;6.18;;;4.80;;
16766;SDS011;8501;49.926;8.404;2022-10-16T15:04:49;5.78;;;4.65;;
16766;SDS011;8501;49.926;8.404;2022-10-16T15:07:15;6.85;;;5.35;;
16766;SDS011;8501;49.926;8.404;2022-10-16T15:09:40;7.28;;;5.40;;
16766;SDS011;8501;49.926;8.404;2022-10-16T15:12:06;6.07;;;5.22;;
16766;SDS011;8501;49.926;8.404;2022-10-16T15:14:31;5.68;;;5.05;;
16766;SDS011;8501;49.926;8.404;2022-10-16T15:16:57;6.60;;;5.45;;
16766;SDS011;8501;49.926;8.404;2022-10-16T15:19:23;5.93;;;5.13;;
16766;SDS011;8501;49.926;8.404;2022-10-16T15:21:48;6.35;;;5.75;;
16766;SDS011;8501;49.926;8.404;2022-10-16T15:24:14;6.40;;;5.45;;
16766;SDS011;8501;49.926;8.404;2022-10-16T15:26:40;6.60;;;5.90;;
16766;SDS011;8501;49.926;8.404;2022-10-16T15:29:06;7.50;;;5.97;;
16766;SDS011;8501;49.926;8.404;2022-10-16T15:31:32;6.85;;;6.15;;
16766;SDS011;8501;49.926;8.404;2022-10-16T15:33:57;7.10;;;5.93;;
16766;SDS011;8501;49.926;8.404;2022-10-16T15:36:29;6.82;;;5.90;;
16766;SDS011;8501;49.926;8.404;2022-10-16T15:39:02;8.35;;;6.45;;
16766;SDS011;8501;49.926;8.404;2022-10-16T15:41:28;7.72;;;6.38;;
16766;SDS011;8501;49.926;8.404;2022-10-16T15:43:54;6.80;;;6.07;;
16766;SDS011;8501;49.926;8.404;2022-10-16T15:46:20;8.13;;;6.93;;
16766;SDS011;8501;49.926;8.404;2022-10-16T15:48:48;8.43;;;6.38;;
16766;SDS011;8501;49.926;8.404;2022-10-16T15:51:14;7.07;;;6.38;;
16766;SDS011;8501;49.926;8.404;2022-10-16T15:53:41;8.63;;;6.85;;
16766;SDS011;8501;49.926;8.404;2022-10-16T15:56:07;7.30;;;6.53;;
16766;SDS011;8501;49.926;8.404;2022-10-16T15:58:35;7.30;;;6.15;;
16766;SDS011;8501;49.926;8.404;2022-10-16T16:01:01;7.72;;;5.95;;
16766;SDS011;8501;49.926;8.404;2022-10-16T16:03:29;7.10;;;5.93;;
16766;SDS011;8501;49.926;8.404;2022-10-16T16:05:55;8.95;;;6.38;;
16766;SDS011;8501;49.926;8.404;2022-10-16T16:08:21;7.20;;;6.18;;
16766;SDS011;8501;49.926;8.404;2022-10-16T16:13:38;8.95;;;6.45;;
16766;SDS011;8501;49.926;8.404;2022-10-16T16:16:08;7.35;;;6.25;;
16766;SDS011;8501;49.926;8.404;2022-10-16T16:18:36;7.80;;;6.18;;
16766;SDS011;8501;49.926;8.404;2022-10-16T16:21:02;9.70;;;6.57;;
16766;SDS011;8501;49.926;8.404;2022-10-16T16:23:28;8.27;;;7.20;;
16766;SDS011;8501;49.926;8.404;2022-10-16T16:28:50;9.63;;;7.00;;
16766;SDS011;8501;49.926;8.404;2022-10-16T16:31:17;9.20;;;7.65;;
16766;SDS011;8501;49.926;8.404;2022-10-16T16:33:42;11.15;;;8.60;;
16766;SDS011;8501;49.926;8.404;2022-10-16T16:36:08;11.48;;;8.95;;
16766;SDS011;8501;49.926;8.404;2022-10-16T16:38:36;15.88;;;8.35;;
16766;SDS011;8501;49.926;8.404;2022-10-16T16:41:11;9.73;;;7.60;;
16766;SDS011;8501;49.926;8.404;2022-10-16T16:43:38;9.57;;;7.70;;
16766;SDS011;8501;49.926;8.404;2022-10-16T16:46:03;11.30;;;7.05;;
16766;SDS011;8501;49.926;8.404;2022-10-16T16:48:29;7.97;;;6.80;;
16766;SDS011;8501;49.926;8.404;2022-10-16T16:50:55;9.10;;;6.78;;
16766;SDS011;8501;49.926;8.404;2022-10-16T16:53:21;8.40;;;7.10;;
16766;SDS011;8501;49.926;8.404;2022-10-16T16:55:47;11.52;;;8.00;;